Time;durP1;ratioP1;P1;durP2;ratioP2;P2;SDS_P1;SDS_P2;PMS_P1;PMS_P2;Temp;Humidity;BMP_temperature;BMP_pressure;BME280_temperature;BME280_humidity;BME280_pressure;Samples;Min_cycle;Max_cycle;Signal;HPM_P1;HPM_P2
2023/10/23 00:00:15;;;;;;;4.93;2.08;;;;;;;-144.05;84.82;56980.53;4995122;28;20040;-79
2023/10/23 00:02:40;;;;;;;5.28;2.28;;;8.70;99.90;;;-144.05;84.45;56974.16;4995577;28;20032;-78
2023/10/23 00:05:07;;;;;;;5.75;2.13;;;15.80;99.90;;;-144.05;84.25;56980.53;5012500;28;20033;-79
2023/10/23 00:07:33;;;;;;;6.85;1.95;;;;;;;-144.05;85.14;56972.03;5014153;28;20029;-81
2023/10/23 00:09:59;;;;;;;6.63;2.33;;;9.30;99.90;;;-144.05;84.67;56969.91;5015984;28;20030;-82
2023/10/23 00:12:25;;;;;;;7.68;2.20;;;;;;;-144.05;84.07;56984.78;5016140;28;20673;-82
2023/10/23 00:14:51;;;;;;;5.85;2.55;;;8.50;99.90;;;-144.05;83.76;56986.91;4997683;28;20030;-82
2023/10/23 00:17:17;;;;;;;3.20;1.95;;;15.60;99.90;;;-144.05;83.49;56957.16;5014847;28;20036;-82
2023/10/23 00:19:43;;;;;;;6.93;2.20;;;8.50;99.90;;;-144.05;83.47;56940.16;4996831;28;20026;-78
2023/10/23 00:22:09;;;;;;;6.93;2.50;;;15.50;99.90;;;-144.05;83.47;56948.66;5014322;28;20471;-81
2023/10/23 00:24:36;;;;;;;4.32;1.83;;;;;;;-144.05;83.05;56980.53;5013497;28;20030;-81
2023/10/23 00:27:02;;;;;;;4.57;2.20;;;8.60;99.90;;;-144.05;82.91;56963.53;5012756;28;20395;-78
2023/10/23 00:29:27;;;;;;;8.23;2.45;;;8.60;99.90;;;-144.05;83.10;56959.28;5012295;28;20030;-77
2023/10/23 00:31:53;;;;;;;3.80;1.98;;;15.80;99.90;;;-144.05;83.06;56986.91;5012400;28;20054;-80
2023/10/23 00:34:19;;;;;;;4.95;2.08;;;15.60;99.90;;;-144.05;83.03;56963.53;4994643;28;20128;-79
2023/10/23 00:36:45;;;;;;;3.40;1.90;;;8.70;99.90;;;-144.05;83.09;56944.41;4994803;28;20030;-80
2023/10/23 00:39:11;;;;;;;5.25;1.80;;;9.10;99.90;;;-144.05;83.39;57001.75;5012562;28;20036;-80
2023/10/23 00:41:37;;;;;;;3.40;2.00;;;;;;;-144.05;83.54;56957.16;4994652;28;20557;-82
2023/10/23 00:44:04;;;;;;;6.90;2.40;;;15.50;99.90;;;-144.05;83.85;56963.53;5012687;28;20029;-79
2023/10/23 00:46:30;;;;;;;5.45;2.17;;;15.80;99.90;;;-144.05;83.78;56984.78;5013244;28;20026;-80
2023/10/23 00:48:58;;;;;;;6.10;2.08;;;12.10;99.90;;;-144.05;83.89;56957.16;5013511;28;20045;-79
2023/10/23 00:51:25;;;;;;;5.90;2.72;;;8.60;99.90;;;-144.05;83.88;56938.03;5013683;28;20034;-82
2023/10/23 00:53:52;;;;;;;4.65;2.00;;;16.00;99.90;;;-144.05;83.42;56974.16;5025369;28;20049;-81
2023/10/23 00:56:18;;;;;;;6.20;2.70;;;15.70;99.90;;;-144.05;83.26;56972.03;5031488;28;20395;-80
2023/10/23 00:58:44;;;;;;;6.47;2.33;;;8.70;99.90;;;-144.05;83.44;56961.41;5031355;28;20022;-78
2023/10/23 01:01:12;;;;;;;4.82;2.10;;;8.80;99.90;;;-144.05;83.28;56957.16;5026625;28;20030;-79
2023/10/23 01:03:43;;;;;;;3.10;1.98;;;12.10;99.90;;;-144.05;83.63;56959.28;4994311;28;20495;-78
2023/10/23 01:06:12;;;;;;;5.78;2.30;;;8.70;99.90;;;-144.05;83.59;56955.03;5014104;28;20040;-77
2023/10/23 01:08:39;;;;;;;5.05;1.75;;;8.50;99.90;;;-144.05;83.46;56969.91;5015043;28;20065;-79
2023/10/23 01:11:05;;;;;;;3.55;1.98;;;;;;;-144.05;83.52;56978.41;5014709;28;20107;-78
2023/10/23 01:13:31;;;;;;;5.45;2.20;;;;;;;-144.05;83.80;56974.16;5014793;28;20034;-78
2023/10/23 01:15:57;;;;;;;4.40;2.10;;;;;;;-144.05;83.64;56942.28;4996943;28;20088;-79
2023/10/23 01:18:23;;;;;;;5.28;2.08;;;15.70;99.90;;;-144.05;83.88;56959.28;4997226;28;20041;-80
2023/10/23 01:20:49;;;;;;;4.85;1.85;;;7.80;99.90;;;-144.05;83.47;56938.03;5014827;28;20083;-78
2023/10/23 01:23:16;;;;;;;5.57;2.00;;;;;;;-144.05;83.66;56976.28;5014461;28;20033;-78
2023/10/23 01:25:42;;;;;;;4.78;1.98;;;8.20;99.90;;;-144.05;83.79;56955.03;4996538;28;20057;-78
2023/10/23 01:28:08;;;;;;;4.97;2.55;;;;;;;-144.05;83.99;56978.41;5014378;28;20022;-79
2023/10/23 01:30:34;;;;;;;2.88;1.42;;;8.50;99.90;;;-144.05;83.83;56969.91;5017250;28;20068;-80
2023/10/23 01:33:00;;;;;;;7.75;2.13;;;8.40;99.90;;;-144.05;83.68;56963.53;5001953;28;20438;-81
2023/10/23 01:35:26;;;;;;;8.40;1.95;;;;;;;-144.05;83.76;56978.41;4996845;28;20121;-77
2023/10/23 01:37:52;;;;;;;3.65;1.90;;;15.80;99.90;;;-144.05;83.92;56963.53;5014437;28;20069;-78
2023/10/23 01:40:18;;;;;;;7.70;2.42;;;8.20;99.90;;;-144.05;84.39;56972.03;5014498;28;20057;-77
2023/10/23 01:42:46;;;;;;;3.92;1.90;;;8.40;99.90;;;-144.05;84.25;56950.78;4996764;28;20033;-79
2023/10/23 01:45:13;;;;;;;4.25;2.05;;;;;;;-144.05;84.19;56980.53;5013922;28;20144;-79
2023/10/23 01:47:39;;;;;;;6.13;2.13;;;8.30;99.90;;;-144.05;84.11;56976.28;4996308;28;20026;-79
2023/10/23 01:50:06;;;;;;;6.25;2.53;;;12.00;99.90;;;-144.05;84.17;56969.91;5012395;28;20032;-79
2023/10/23 01:52:32;;;;;;;4.57;1.90;;;8.30;99.90;;;-144.05;84.46;56959.28;4996158;28;20502;-79
2023/10/23 01:54:59;;;;;;;5.13;1.67;;;8.30;99.90;;;-144.05;84.47;56961.41;5013429;28;20044;-79
2023/10/23 01:57:25;;;;;;;7.35;2.38;;;8.40;99.90;;;-144.05;84.91;56976.28;5013693;28;20041;-80
2023/10/23 01:59:52;;;;;;;3.58;2.15;;;15.50;99.90;;;-144.05;84.64;56955.03;5013746;28;20033;-80
2023/10/23 02:02:18;;;;;;;4.30;1.83;;;8.80;99.90;;;-144.05;84.66;56991.13;4995995;28;20037;-79
2023/10/23 02:04:45;;;;;;;5.25;1.83;;;8.50;99.90;;;-144.05;84.41;56991.13;5013578;28;20030;-79
2023/10/23 02:07:11;;;;;;;3.20;1.70;;;9.00;99.90;;;-144.05;84.38;56972.03;4995979;28;20117;-78
2023/10/23 02:09:37;;;;;;;3.67;1.73;;;;;;;-144.05;84.28;56972.03;5013438;28;20105;-78
2023/10/23 02:12:05;;;;;;;4.15;1.70;;;8.20;99.90;;;-144.05;84.39;56940.16;4995768;28;20065;-77
2023/10/23 02:14:31;;;;;;;3.90;1.80;;;8.40;99.90;;;-144.05;84.59;56967.78;5013116;28;20038;-78
2023/10/23 02:16:56;;;;;;;4.85;1.88;;;15.10;99.90;;;-144.05;84.66;56961.41;5012342;28;20036;-77
2023/10/23 02:19:22;;;;;;;4.32;2.05;;;8.50;99.90;;;-144.05;84.71;56982.66;4995687;28;20022;-77
2023/10/23 02:21:49;;;;;;;6.38;2.00;;;8.00;99.90;;;-144.05;84.76;56995.38;5013486;28;20061;-78
2023/10/23 02:24:21;;;;;;;3.85;1.80;;;8.30;99.90;;;-144.05;85.05;56959.28;5012970;28;20022;-78
2023/10/23 02:26:48;;;;;;;5.88;1.77;;;8.20;99.90;;;-144.05;85.06;56980.53;5013314;28;20429;-79
2023/10/23 02:29:15;;;;;;;3.42;2.30;;;;;;;-144.05;85.45;56948.66;4995605;28;20103;-78
2023/10/23 02:31:41;;;;;;;5.53;2.20;;;;;;;-144.05;85.59;56993.25;5013346;28;20506;-77
2023/10/23 02:34:07;;;;;;;3.15;1.63;;;7.40;99.90;;;-144.05;85.85;56984.78;5013143;28;20057;-79
2023/10/23 02:36:34;;;;;;;6.80;2.25;;;15.40;99.90;;;-144.05;85.90;56942.28;5013280;28;20129;-78
2023/10/23 02:39:00;;;;;;;2.53;1.80;;;8.40;99.90;;;-144.05;85.82;56972.03;4995441;28;20032;-78
2023/10/23 02:41:30;;;;;;;4.07;2.13;;;15.50;99.90;;;-144.05;85.98;56957.16;5013504;28;20394;-79
2023/10/23 02:43:56;;;;;;;5.97;2.20;;;;;;;-144.05;86.21;56976.28;4995383;28;20188;-78
2023/10/23 02:46:23;;;;;;;3.42;1.95;;;;;;;-144.05;86.46;56961.41;5013122;28;20341;-78
2023/10/23 02:48:49;;;;;;;3.85;2.40;;;7.70;99.90;;;-144.05;86.35;56967.78;5013027;28;20226;-78
2023/10/23 02:51:14;;;;;;;3.63;1.88;;;15.40;99.90;;;-144.05;86.52;56950.78;4995248;28;20042;-80
2023/10/23 02:53:41;;;;;;;8.13;2.70;;;;;;;-144.05;86.65;56974.16;5012593;28;20091;-80
2023/10/23 02:56:12;;;;;;;3.78;2.13;;;10.40;99.90;;;-144.05;86.83;56976.28;5012505;28;20170;-80
2023/10/23 02:58:38;;;;;;;6.50;2.47;;;;;;;-144.05;87.55;56967.78;4994947;28;20057;-80
2023/10/23 03:01:23;;;;;;;7.32;3.05;;;14.60;99.90;;;-144.05;88.81;56952.91;5012563;28;20026;-78
2023/10/23 03:03:51;;;;;;;5.45;3.13;;;7.60;99.90;;;-144.05;89.41;56959.28;5012674;28;20033;-79
2023/10/23 03:06:17;;;;;;;5.32;2.85;;;8.40;99.90;;;-144.05;88.89;56999.63;5012794;28;20109;-80
2023/10/23 03:08:44;;;;;;;8.75;2.92;;;;;;;-144.05;88.84;56984.78;4998207;28;20033;-80
2023/10/23 03:11:10;;;;;;;7.07;2.90;;;8.00;99.90;;;-144.05;88.63;56974.16;5014779;28;20088;-78
2023/10/23 03:13:36;;;;;;;5.90;2.90;;;7.60;99.90;;;-144.05;88.23;56993.25;4994915;28;20030;-80
2023/10/23 03:16:02;;;;;;;14.20;3.13;;;14.90;99.90;;;-144.05;88.30;56969.91;5012795;28;20424;-80
2023/10/23 03:18:29;;;;;;;5.15;2.92;;;14.80;99.90;;;-144.05;88.82;56967.78;5011516;28;20084;-79
2023/10/23 03:21:02;;;;;;;5.45;2.70;;;14.90;99.90;;;-144.05;88.12;56974.16;5012935;28;20109;-80
2023/10/23 03:23:29;;;;;;;7.85;2.70;;;10.20;99.90;;;-144.05;88.05;56961.41;4995191;28;20037;-78
2023/10/23 03:25:56;;;;;;;5.38;2.08;;;7.60;99.90;;;-144.05;88.00;56965.66;4995083;28;20100;-80
2023/10/23 03:28:22;;;;;;;5.60;2.53;;;;;;;-144.05;87.86;56986.91;4994214;28;20034;-78
2023/10/23 03:30:48;;;;;;;3.92;2.53;;;7.90;99.90;;;-144.05;88.55;56986.91;5012683;28;20495;-79
2023/10/23 03:33:15;;;;;;;8.15;3.03;;;;;;;-144.05;88.54;56980.53;5012370;28;20056;-80
2023/10/23 03:35:44;;;;;;;6.22;3.30;;;7.90;99.90;;;-144.05;88.95;56946.53;5012552;28;20030;-78
2023/10/23 03:38:12;;;;;;;5.18;2.72;;;;;;;-144.05;88.36;56980.53;5012221;28;20487;-78
2023/10/23 03:40:38;;;;;;;6.30;2.92;;;;;;;-144.05;88.84;56995.38;4994882;28;20057;-79
2023/10/23 03:43:05;;;;;;;9.15;2.70;;;;;;;-144.05;88.61;56986.91;4994263;28;20030;-78
2023/10/23 03:45:38;;;;;;;10.05;3.78;;;9.80;99.90;;;-144.05;89.10;56963.53;4994568;28;20120;-78
2023/10/23 03:48:05;;;;;;;7.00;3.20;;;;;;;-144.05;88.63;56982.66;4994642;28;20353;-80
2023/10/23 03:50:30;;;;;;;3.67;2.40;;;7.90;99.90;;;-144.05;88.17;56991.13;4994402;28;20045;-80
2023/10/23 03:52:57;;;;;;;6.22;2.90;;;9.30;99.90;;;-144.05;88.05;57001.75;5012189;28;20487;-79
2023/10/23 03:55:23;;;;;;;8.38;2.60;;;8.10;99.90;;;-144.05;88.13;56976.28;5011102;28;20034;-78
2023/10/23 03:57:49;;;;;;;7.43;3.08;;;;;;;-144.05;87.81;56995.38;5012386;28;20033;-78
2023/10/23 04:00:15;;;;;;;6.07;3.08;;;9.80;99.90;;;-144.05;87.47;56995.38;5012019;28;20515;-79
2023/10/23 04:02:41;;;;;;;4.93;2.90;;;10.90;99.90;;;-144.05;87.93;56980.53;4994507;28;20036;-78
2023/10/23 04:05:07;;;;;;;5.95;2.17;;;9.60;99.90;;;-144.05;87.76;56976.28;4994233;28;20131;-78
2023/10/23 04:07:33;;;;;;;4.35;1.98;;;7.90;99.90;;;-144.05;87.75;56952.91;5012142;28;20052;-80
2023/10/23 04:09:59;;;;;;;5.85;1.92;;;;;;;-144.05;87.89;56989.00;4994139;28;20026;-78
2023/10/23 04:12:25;;;;;;;3.95;2.15;;;7.30;99.90;;;-144.05;88.29;56978.41;5011700;28;20522;-78
2023/10/23 04:14:51;;;;;;;3.20;2.10;;;;;;;-144.05;88.17;56984.78;5012250;28;20151;-78
2023/10/23 04:17:17;;;;;;;4.72;2.50;;;8.30;99.90;;;-144.05;88.60;56955.03;5011573;28;20493;-80
2023/10/23 04:19:46;;;;;;;3.72;2.20;;;;;;;-144.05;88.68;56967.78;4993800;28;20157;-77
2023/10/23 04:22:12;;;;;;;4.65;2.70;;;8.00;99.90;;;-144.05;88.85;56980.53;5011178;28;20033;-80
2023/10/23 04:24:38;;;;;;;5.47;2.22;;;7.60;99.90;;;-144.05;88.71;56989.00;5011516;28;20491;-81
2023/10/23 04:27:04;;;;;;;4.68;2.78;;;7.50;99.90;;;-144.05;88.48;57008.13;4994009;28;20045;-79
2023/10/23 04:29:30;;;;;;;2.65;1.63;;;7.50;99.90;;;-144.05;88.63;56986.91;5011738;28;20030;-78
2023/10/23 04:31:56;;;;;;;5.80;2.88;;;;;;;-144.05;88.51;56959.28;5011945;28;20030;-80
2023/10/23 04:34:22;;;;;;;5.68;2.80;;;8.10;99.90;;;-144.05;88.61;56989.00;5011635;28;20062;-81
2023/10/23 04:36:48;;;;;;;3.47;2.72;;;;;;;-144.05;89.06;56991.13;5011595;28;20123;-80
2023/10/23 04:39:15;;;;;;;5.25;3.08;;;;;;;-144.05;89.00;56997.50;4997754;28;20048;-81
2023/10/23 04:41:41;;;;;;;4.35;2.60;;;;;;;-144.05;88.93;56995.38;5000657;28;20037;-84
2023/10/23 04:44:07;;;;;;;9.00;3.67;;;7.80;99.90;;;-144.05;89.87;56972.03;5000432;28;20112;-84
2023/10/23 04:46:33;;;;;;;10.05;3.80;;;7.20;99.90;;;-144.05;89.71;57003.88;5021466;28;20037;-80
2023/10/23 04:48:58;;;;;;;9.02;4.28;;;7.80;99.90;;;-144.05;89.80;56984.78;5022274;28;20030;-82
2023/10/23 04:51:24;;;;;;;9.93;4.72;;;7.10;99.90;;;-144.05;90.95;56980.53;5020046;28;20064;-80
2023/10/23 04:53:50;;;;;;;9.68;5.53;;;;;;;-144.05;91.27;56993.25;5015806;28;20033;-76
2023/10/23 04:56:16;;;;;;;15.65;6.90;;;7.70;99.90;;;-144.05;91.35;57008.13;5016611;28;20073;-80
2023/10/23 04:58:43;;;;;;;10.80;5.90;;;11.10;99.90;;;-144.05;92.04;56984.78;4998835;28;20033;-82
2023/10/23 05:01:18;;;;;;;9.88;4.88;;;9.40;99.90;;;-144.05;91.53;56969.91;4999127;28;20025;-80
2023/10/23 05:03:44;;;;;;;;;;;9.50;99.90;;;-144.05;92.54;56976.28;4999873;28;20032;-80
2023/10/23 05:06:10;;;;;;;11.45;6.00;;;15.10;99.90;;;-144.05;91.76;56982.66;5015929;28;19944;-80
2023/10/23 05:08:36;;;;;;;12.88;5.85;;;;;;;-144.05;91.51;56989.00;5015668;28;20034;-79
2023/10/23 05:11:10;;;;;;;7.45;4.78;;;9.50;99.90;;;-144.05;90.92;56972.03;4997968;28;20018;-79
2023/10/23 05:13:36;;;;;;;9.68;5.75;;;7.90;99.90;;;-144.05;91.08;56976.28;5014939;28;20080;-78
2023/10/23 05:16:06;;;;;;;8.27;4.55;;;7.80;99.90;;;-144.05;90.65;56963.53;5016343;28;20030;-79
2023/10/23 05:18:34;;;;;;;9.77;6.07;;;11.60;99.90;;;-144.05;91.19;57001.75;4998607;28;20026;-79
2023/10/23 05:21:12;;;;;;;14.18;6.30;;;10.40;99.90;;;-144.05;91.72;56982.66;5014728;28;20022;-78
2023/10/23 05:23:40;;;;;;;14.52;7.38;;;9.30;99.90;;;-144.05;91.48;56993.25;5014493;28;20030;-80
2023/10/23 05:26:08;;;;;;;17.92;9.25;;;7.90;99.90;;;-144.05;91.51;56980.53;5014444;28;20605;-80
2023/10/23 05:28:33;;;;;;;22.63;8.95;;;7.70;99.90;;;-144.05;91.37;56986.91;4996466;28;20042;-80
2023/10/23 05:31:00;;;;;;;16.00;9.75;;;;;;;-144.05;91.65;56991.13;5014619;28;20376;-82
2023/10/23 05:33:26;;;;;;;15.35;9.00;;;7.30;99.90;;;-144.05;91.46;56967.78;4996959;28;20037;-78
2023/10/23 05:36:05;;;;;;;20.08;9.93;;;7.40;99.90;;;-144.05;91.33;56984.78;5014817;28;20034;-78
2023/10/23 05:38:32;;;;;;;20.15;10.18;;;8.30;99.90;;;-144.05;91.32;56972.03;5014503;28;20026;-79
2023/10/23 05:40:59;;;;;;;25.33;11.95;;;11.60;99.90;;;-144.05;91.46;56969.91;5015167;28;20026;-79
2023/10/23 05:43:28;;;;;;;21.10;10.52;;;7.40;99.90;;;-144.05;91.31;56961.41;5014883;28;20030;-77
2023/10/23 05:45:56;;;;;;;18.05;9.82;;;8.00;99.90;;;-144.05;91.22;56984.78;4997136;28;20030;-78
2023/10/23 05:48:23;;;;;;;24.02;9.52;;;8.60;99.90;;;-144.05;91.34;57010.25;5013102;28;20163;-79
2023/10/23 05:51:04;;;;;;;18.70;9.77;;;9.90;99.90;;;-144.05;90.85;56976.28;5014000;28;20041;-78
2023/10/23 05:53:31;;;;;;;16.65;8.85;;;7.80;99.90;;;-144.05;90.83;56959.28;5013554;28;20037;-79
2023/10/23 05:56:05;;;;;;;14.35;7.72;;;9.80;99.90;;;-144.05;90.60;56946.53;5013973;28;20038;-79
2023/10/23 05:58:35;;;;;;;13.82;8.95;;;7.50;99.90;;;-144.05;90.74;56974.16;5014281;28;20458;-82
2023/10/23 06:01:12;;;;;;;18.00;8.50;;;7.40;99.90;;;-144.05;90.63;57003.88;5014044;28;20026;-78
2023/10/23 06:03:38;;;;;;;15.50;8.48;;;8.00;99.90;;;-144.05;90.45;57001.75;4996132;28;20029;-81
2023/10/23 06:06:05;;;;;;;17.38;8.57;;;8.00;99.90;;;-144.05;90.38;56978.41;5014776;28;20026;-83
2023/10/23 06:08:32;;;;;;;16.63;8.70;;;8.10;99.90;;;-144.05;90.22;56995.38;5015738;28;20033;-77
2023/10/23 06:10:58;;;;;;;21.65;10.25;;;8.10;99.90;;;-144.05;90.20;56984.78;5015227;28;20078;-79
2023/10/23 06:13:24;;;;;;;11.57;7.63;;;;;;;-144.05;90.35;56965.66;5014312;28;20124;-79
2023/10/23 06:15:50;;;;;;;14.60;8.32;;;7.80;99.90;;;-144.05;90.03;56974.16;5014287;28;20486;-81
2023/10/23 06:18:16;;;;;;;14.77;7.00;;;11.30;99.90;;;-144.05;89.63;56984.78;5014462;28;20034;-81
2023/10/23 06:20:43;;;;;;;16.80;7.53;;;11.20;99.90;;;-144.05;89.99;56989.00;5016523;28;20037;-79
2023/10/23 06:23:09;;;;;;;16.40;9.15;;;;;;;-144.05;90.04;56976.28;5014011;28;20091;-80
2023/10/23 06:25:35;;;;;;;17.67;9.20;;;11.40;99.90;;;-144.05;89.98;56948.66;5016240;28;20475;-83
2023/10/23 06:28:03;;;;;;;17.80;9.43;;;11.30;99.90;;;-144.05;90.13;56997.50;5020071;28;20048;-82
2023/10/23 06:30:29;;;;;;;18.45;9.57;;;;;;;-144.05;89.94;56982.66;5016331;28;20060;-81
2023/10/23 06:32:56;;;;;;;14.73;7.85;;;;;;;-144.05;89.55;56982.66;5014872;28;20030;-79
2023/10/23 06:35:22;;;;;;;9.70;6.55;;;;;;;-144.05;89.51;56974.16;5027621;28;20136;-81
2023/10/23 06:37:50;;;;;;;12.90;5.47;;;8.10;99.90;;;-144.05;89.39;56974.16;5010087;28;20069;-81
2023/10/23 06:40:15;;;;;;;8.15;4.65;;;11.30;99.90;;;-144.05;89.22;56997.50;5009691;28;20041;-81
2023/10/23 06:42:41;;;;;;;10.68;5.05;;;11.20;99.90;;;-144.05;88.53;57006.00;5022388;28;20402;-81
2023/10/23 06:45:07;;;;;;;8.48;5.88;;;7.50;99.90;;;-144.05;88.17;56974.16;4996151;28;20100;-82
2023/10/23 06:47:33;;;;;;;12.40;6.47;;;8.10;99.90;;;-144.05;87.84;56967.78;4997402;28;20053;-80
2023/10/23 06:50:02;;;;;;;8.68;4.63;;;;;;;-144.05;87.96;57012.38;5017582;28;20116;-81
2023/10/23 06:52:28;;;;;;;9.57;5.78;;;;;;;-144.05;87.47;56978.41;5014625;28;20475;-82
2023/10/23 06:54:54;;;;;;;10.95;6.00;;;7.90;99.90;;;-144.05;87.37;56978.41;5013607;28;20683;-81
2023/10/23 06:57:20;;;;;;;8.93;5.93;;;15.20;99.90;;;-144.05;87.25;56963.53;5013526;28;20029;-80
2023/10/23 06:59:45;;;;;;;8.38;4.82;;;15.40;99.90;;;-144.05;87.00;56982.66;5014051;28;20049;-79
2023/10/23 07:02:11;;;;;;;11.55;4.88;;;7.90;99.90;;;-144.05;86.92;56965.66;5013176;28;20029;-80
2023/10/23 07:04:37;;;;;;;7.95;5.60;;;8.10;99.90;;;-144.05;86.61;56978.41;4996079;28;20609;-81
2023/10/23 07:07:03;;;;;;;10.82;6.38;;;8.20;99.90;;;-144.05;85.77;56961.41;4994698;28;20038;-81
2023/10/23 07:09:31;;;;;;;13.18;7.07;;;8.30;99.90;;;-144.05;84.92;56980.53;5012131;28;20112;-79
2023/10/23 07:11:57;;;;;;;10.00;6.25;;;;;;;-144.05;83.88;56974.16;5012035;28;20133;-80
2023/10/23 07:14:23;;;;;;;12.45;6.88;;;;;;;-144.05;83.76;56961.41;5012462;28;20034;-80
2023/10/23 07:16:49;;;;;;;14.50;8.07;;;15.60;99.90;;;-144.05;83.54;56969.91;4994279;28;20112;-77
2023/10/23 07:19:15;;;;;;;12.30;7.45;;;15.70;99.90;;;-144.05;82.64;56976.28;5012061;28;20085;-79
2023/10/23 07:21:41;;;;;;;9.63;6.80;;;;;;;-144.05;82.66;56965.66;5012227;28;20037;-79
2023/10/23 07:24:07;;;;;;;14.88;7.53;;;15.80;99.90;;;-144.05;82.36;56972.03;5011894;28;20029;-80
2023/10/23 07:26:34;;;;;;;13.05;8.25;;;;;;;-144.05;81.39;56952.91;5012050;28;20533;-80
2023/10/23 07:28:59;;;;;;;12.75;6.47;;;9.10;99.90;;;-144.05;80.00;56965.66;5011657;28;20049;-80
2023/10/23 07:31:25;;;;;;;10.77;6.65;;;9.60;99.90;;;-144.05;79.04;56957.16;5011627;28;20037;-80
2023/10/23 07:33:51;;;;;;;12.45;7.07;;;9.80;99.90;;;-144.05;77.23;56948.66;4994702;28;20033;-79
2023/10/23 07:36:18;;;;;;;11.93;6.20;;;10.20;99.90;;;-144.05;75.45;56980.53;5012411;28;20080;-78
2023/10/23 07:38:45;;;;;;;13.82;6.10;;;10.10;99.90;;;-144.05;74.11;56993.25;5011517;28;20034;-80
2023/10/23 07:41:13;;;;;;;12.23;5.40;;;10.00;99.90;;;-144.05;73.61;56965.66;4993432;28;20049;-78
2023/10/23 07:43:39;;;;;;;8.98;4.88;;;10.40;99.90;;;-144.05;72.98;56957.16;5011789;28;20049;-78
2023/10/23 07:46:10;;;;;;;9.02;5.55;;;13.90;99.90;;;-144.05;72.09;56967.78;5011582;28;20096;-79
2023/10/23 07:48:37;;;;;;;8.27;4.95;;;;;;;-144.05;71.54;56925.28;5011497;28;20049;-80
2023/10/23 07:51:03;;;;;;;7.50;3.95;;;;;;;-144.05;71.50;56982.66;5012794;28;20034;-79
2023/10/23 07:53:32;;;;;;;7.57;4.18;;;16.00;99.90;;;-144.05;70.81;56972.03;5011365;28;20030;-79
2023/10/23 07:55:59;;;;;;;10.77;5.00;;;;;;;-144.05;70.13;56978.41;4993701;28;20498;-80
2023/10/23 07:58:25;;;;;;;8.80;4.57;;;10.70;99.90;;;-144.05;68.97;56948.66;5011267;28;20490;-80
2023/10/23 08:01:04;;;;;;;9.43;4.55;;;10.40;99.90;;;-144.05;69.14;56969.91;5011698;28;20026;-78
2023/10/23 08:03:30;;;;;;;9.85;4.95;;;10.90;99.90;;;-144.05;68.28;56993.25;4994616;28;20038;-82
2023/10/23 08:05:57;;;;;;;9.95;4.45;;;;;;;-144.05;67.70;56959.28;5016588;28;20022;-82
2023/10/23 08:08:22;;;;;;;7.80;4.05;;;10.80;99.90;;;-144.05;67.12;56955.03;4995687;28;20038;-79
2023/10/23 08:10:48;;;;;;;11.23;4.47;;;10.80;99.90;;;-144.05;66.93;56967.78;5011364;28;20113;-81
2023/10/23 08:13:14;;;;;;;8.70;4.25;;;;;;;-144.05;67.32;56946.53;5010843;28;20045;-81
2023/10/23 08:15:43;;;;;;;9.05;3.97;;;;;;;-144.05;67.58;56963.53;5013266;28;20036;-80
2023/10/23 08:18:09;;;;;;;10.02;4.28;;;10.60;99.90;;;-144.05;67.39;56969.91;5015487;28;20072;-79
2023/10/23 08:20:35;;;;;;;7.03;4.28;;;10.00;99.90;;;-144.05;67.76;56969.91;5015491;28;20109;-80
2023/10/23 08:23:01;;;;;;;12.10;4.35;;;;;;;-144.05;68.37;56972.03;5015461;28;20482;-81
2023/10/23 08:25:28;;;;;;;10.40;4.43;;;;;;;-144.05;68.16;56976.28;4997759;28;20052;-81
2023/10/23 08:27:54;;;;;;;12.00;3.60;;;;;;;-144.05;66.61;56938.03;4997676;28;20196;-81
2023/10/23 08:30:19;;;;;;;10.05;3.80;;;16.00;99.90;;;-144.05;66.33;56972.03;5015298;28;20044;-81
2023/10/23 08:32:46;;;;;;;8.45;3.38;;;;;;;-144.05;65.73;56914.69;5015725;28;20038;-81
2023/10/23 08:35:12;;;;;;;13.77;4.20;;;11.20;99.90;;;-144.05;65.09;56961.41;4997908;28;20121;-80
2023/10/23 08:37:37;;;;;;;11.45;4.18;;;10.90;99.90;;;-144.05;64.22;56952.91;5015194;28;20160;-79
2023/10/23 08:40:06;;;;;;;13.95;3.47;;;11.40;99.90;;;-144.05;64.47;56980.53;4997163;28;20072;-79
2023/10/23 08:42:34;;;;;;;12.05;3.50;;;11.30;99.90;;;-144.05;63.58;56967.78;5015353;28;20372;-81
2023/10/23 08:45:00;;;;;;;8.18;3.65;;;11.10;99.90;;;-144.05;63.57;56993.25;5015240;28;20073;-81
2023/10/23 08:47:26;;;;;;;8.13;3.35;;;;;;;-144.05;62.75;56957.16;4998362;28;20071;-82
2023/10/23 08:49:53;;;;;;;10.18;3.30;;;16.70;99.90;;;-144.05;62.27;56959.28;4997661;28;20072;-81
2023/10/23 08:52:24;;;;;;;6.68;2.90;;;16.90;99.90;;;-144.05;62.28;57003.88;4997996;28;20493;-80
2023/10/23 08:54:52;;;;;;;10.40;3.20;;;15.50;99.90;;;-144.05;61.73;56965.66;5014822;28;20068;-79
2023/10/23 08:57:20;;;;;;;7.25;3.45;;;11.80;99.90;;;-144.05;61.22;56984.78;4997095;28;20057;-78
2023/10/23 08:59:46;;;;;;;7.68;3.42;;;16.90;99.90;;;-144.05;60.38;56972.03;5014741;28;20091;-80
2023/10/23 09:02:13;;;;;;;7.80;3.00;;;;;;;-144.05;60.61;56952.91;5014756;28;20068;-80
2023/10/23 09:04:39;;;;;;;10.80;3.00;;;;;;;-144.05;60.11;56972.03;5014956;28;20080;-80
2023/10/23 09:07:05;;;;;;;11.20;3.30;;;;;;;-144.05;59.64;56955.03;5014739;28;20477;-78
2023/10/23 09:09:31;;;;;;;6.10;2.65;;;12.30;99.90;;;-144.05;59.79;56950.78;5014535;28;20038;-77
2023/10/23 09:11:57;;;;;;;7.28;2.88;;;12.50;99.90;;;-144.05;59.46;56963.53;5014443;28;20097;-77
2023/10/23 09:14:31;;;;;;;5.00;3.08;;;12.70;99.90;;;-144.05;59.07;56997.50;4996412;28;20037;-79
2023/10/23 09:16:59;;;;;;;5.72;2.67;;;12.40;99.90;;;-144.05;59.07;56978.41;5014167;28;20551;-80
2023/10/23 09:19:38;;;;;;;6.75;2.70;;;15.90;99.90;;;-144.05;59.85;56976.28;4996577;28;20037;-80
2023/10/23 09:22:08;;;;;;;7.10;2.90;;;12.20;99.90;;;-144.05;60.84;56938.03;5014241;28;20471;-80
2023/10/23 09:24:37;;;;;;;5.80;3.15;;;12.20;99.90;;;-144.05;60.42;56965.66;5014408;28;20109;-78
2023/10/23 09:27:03;;;;;;;6.15;2.67;;;12.00;99.90;;;-144.05;60.22;56995.38;5014155;28;20033;-78
2023/10/23 09:29:30;;;;;;;6.35;2.67;;;;;;;-144.05;60.35;56946.53;5014526;28;20132;-82
2023/10/23 09:31:58;;;;;;;7.63;2.75;;;15.50;99.90;;;-144.05;60.86;56989.00;5017764;28;20567;-81
2023/10/23 09:34:25;;;;;;;4.65;3.15;;;11.60;99.90;;;-144.05;61.52;56997.50;5017146;28;20040;-81
2023/10/23 09:36:52;;;;;;;5.93;2.60;;;11.80;99.90;;;-144.05;61.88;56955.03;4999403;28;20496;-81
2023/10/23 09:39:23;;;;;;;4.07;2.47;;;15.50;99.90;;;-144.05;60.99;56961.41;5017149;28;20033;-82
2023/10/23 09:41:50;;;;;;;5.05;2.65;;;;;;;-144.05;60.39;56984.78;5001653;28;20507;-82
2023/10/23 09:44:17;;;;;;;3.78;2.78;;;11.80;99.90;;;-144.05;60.92;56976.28;5017056;28;20034;-81
2023/10/23 09:47:35;;;;;;;6.28;3.38;;;12.30;99.90;;;-144.05;60.97;56982.66;5015717;28;20028;-82
2023/10/23 09:50:03;;;;;;;;;;;15.80;99.90;;;-144.05;60.18;56961.41;5014336;28;20109;-78
2023/10/23 09:52:34;;;;;;;4.10;2.55;;;12.60;99.90;;;-144.05;59.53;56984.78;5015615;28;19910;-79
2023/10/23 09:55:07;;;;;;;5.43;2.17;;;16.10;99.90;;;-144.05;59.50;56972.03;5014727;28;20484;-79
2023/10/23 09:57:45;;;;;;;8.45;2.80;;;12.60;99.90;;;-144.05;58.77;56963.53;5016001;28;20108;-80
2023/10/23 10:00:16;;;;;;;7.18;2.78;;;12.80;99.90;;;-144.05;58.71;56984.78;5014854;28;20443;-79
2023/10/23 10:02:58;;;;;;;5.22;2.20;;;16.50;99.90;;;-144.05;58.42;56963.53;4996933;28;20087;-78
2023/10/23 10:06:09;;;;;;;6.30;2.60;;;13.40;99.90;;;-144.05;58.71;56984.78;5014466;28;20040;-78
2023/10/23 10:08:43;;;;;;;8.32;3.00;;;16.10;99.90;;;-144.05;59.43;56989.00;4983353;28;20038;-79
2023/10/23 10:11:11;;;;;;;5.70;2.53;;;12.40;99.90;;;-144.05;58.60;56972.03;5013991;28;20029;-79
2023/10/23 10:13:37;;;;;;;6.25;2.25;;;;;;;-144.05;57.86;56931.66;5014008;28;20066;-80
2023/10/23 10:16:04;;;;;;;3.88;2.13;;;;;;;-144.05;58.31;56976.28;4997170;28;20120;-77
2023/10/23 10:18:34;;;;;;;7.18;2.55;;;;;;;-144.05;57.86;56974.16;5014005;28;20034;-80
2023/10/23 10:21:09;;;;;;;4.55;2.13;;;17.20;99.90;;;-144.05;57.14;57014.50;5013936;28;20048;-80
2023/10/23 10:23:36;;;;;;;4.80;1.95;;;;;;;-144.05;57.42;56974.16;5013686;28;20048;-78
2023/10/23 10:26:05;;;;;;;3.58;1.63;;;16.40;99.90;;;-144.05;56.27;56965.66;5014003;28;20483;-80